Terminal Aerodrome Forecast
Issued by NWS

Home | Current Version | Previous Version | Text Only | Print | Product List | Glossary On
Versions: 1 2 3 4 5 6 7 8 9 10 11 12 13 14 15 16
875
FTUS41 KCAR 181720
TAFBHB
TAF
KBHB 181720Z 1818/1918 29010G18KT P6SM FEW050
     FM182100 29006KT P6SM SKC
     FM190600 20004KT P6SM SKC
     FM191400 21010KT P6SM SKC=

USA.gov is the U.S. government's official web portal to all federal, state and local government web resources and services.